createdAt,value
2023-02-03T00:00:45.843Z,48.90
2023-02-03T00:01:45.727Z,48.03
2023-02-03T00:02:45.807Z,46.52
2023-02-03T00:03:45.742Z,49.79
2023-02-03T00:04:45.702Z,48.29
2023-02-03T00:05:45.722Z,47.10
2023-02-03T00:06:45.697Z,48.98
2023-02-03T00:07:45.691Z,49.41
2023-02-03T00:08:45.751Z,47.67
2023-02-03T00:09:45.728Z,46.89
2023-02-03T00:10:45.669Z,51.22
2023-02-03T00:11:45.708Z,46.91
2023-02-03T00:12:45.673Z,49.25
2023-02-03T00:13:45.703Z,47.41
2023-02-03T00:14:45.669Z,47.18
2023-02-03T00:15:45.652Z,45.99
2023-02-03T00:16:45.709Z,48.23
2023-02-03T00:17:45.646Z,46.52
2023-02-03T00:18:45.634Z,47.91
2023-02-03T00:19:45.673Z,46.01
2023-02-03T00:20:45.632Z,46.05
2023-02-03T00:21:45.618Z,48.31
2023-02-03T00:22:45.641Z,46.42
2023-02-03T00:23:45.617Z,47.90
2023-02-03T00:24:45.648Z,50.16
2023-02-03T00:25:45.607Z,51.94
2023-02-03T00:26:45.624Z,49.95
2023-02-03T00:27:45.666Z,46.99
2023-02-03T00:28:45.583Z,45.90
2023-02-03T00:29:45.605Z,46.02
2023-02-03T00:30:45.576Z,45.94
2023-02-03T00:31:45.750Z,48.16
2023-02-03T00:32:45.556Z,49.46
2023-02-03T00:33:45.540Z,52.16
2023-02-03T00:34:45.546Z,54.22
2023-02-03T00:35:45.594Z,52.13
2023-02-03T00:36:45.528Z,46.76
2023-02-03T00:37:45.535Z,50.51
2023-02-03T00:38:45.525Z,52.95
2023-02-03T00:39:45.551Z,48.27
2023-02-03T00:40:45.534Z,46.76
2023-02-03T00:41:45.516Z,51.45
2023-02-03T00:42:45.522Z,46.57
2023-02-03T00:43:45.502Z,50.02
2023-02-03T00:44:45.562Z,46.38
2023-02-03T00:45:45.537Z,46.12
2023-02-03T00:46:45.502Z,46.64
2023-02-03T00:47:45.493Z,46.84
2023-02-03T00:48:45.478Z,52.59
2023-02-03T00:49:46.521Z,46.48
2023-02-03T00:50:45.527Z,47.66
2023-02-03T00:51:45.483Z,49.07
2023-02-03T00:52:45.481Z,46.02
2023-02-03T00:53:45.481Z,47.58
2023-02-03T00:54:45.460Z,48.95
2023-02-03T00:55:45.503Z,51.12
2023-02-03T00:56:45.428Z,49.71
2023-02-03T00:57:46.456Z,46.87
2023-02-03T00:58:45.446Z,48.19
2023-02-03T00:59:45.425Z,48.33
2023-02-03T01:00:45.427Z,45.91
2023-02-03T01:01:45.475Z,45.81
2023-02-03T01:02:45.499Z,45.83
2023-02-03T01:03:45.407Z,46.58
2023-02-03T01:04:45.411Z,47.09
2023-02-03T01:05:45.404Z,46.82
2023-02-03T01:06:45.436Z,48.91
2023-02-03T01:07:45.431Z,48.51
2023-02-03T01:08:46.424Z,46.16
2023-02-03T01:09:45.400Z,46.82
2023-02-03T01:10:45.386Z,46.00
2023-02-03T01:11:45.399Z,47.51
2023-02-03T01:12:45.426Z,49.01
2023-02-03T01:13:45.428Z,47.24
2023-02-03T01:14:45.495Z,47.87
2023-02-03T01:15:45.350Z,46.52
2023-02-03T01:16:45.341Z,46.04
2023-02-03T01:17:45.349Z,51.12
2023-02-03T01:18:45.378Z,47.82
2023-02-03T01:19:45.367Z,51.11
2023-02-03T01:20:45.352Z,47.65
2023-02-03T01:21:45.330Z,47.76
2023-02-03T01:22:45.339Z,47.77
2023-02-03T01:23:45.351Z,45.77
2023-02-03T01:24:45.434Z,45.82
2023-02-03T01:25:45.324Z,49.07
2023-02-03T01:26:45.319Z,48.17
2023-02-03T01:27:45.334Z,46.73
2023-02-03T01:28:45.379Z,49.41
2023-02-03T01:29:45.272Z,46.35
2023-02-03T01:30:45.488Z,45.87
2023-02-03T01:31:45.333Z,48.21
2023-02-03T01:32:46.279Z,45.89
2023-02-03T01:33:45.250Z,48.28
2023-02-03T01:34:45.257Z,45.93
2023-02-03T01:35:45.308Z,49.41
2023-02-03T01:36:45.238Z,45.95
2023-02-03T01:37:45.264Z,46.15
2023-02-03T01:38:45.278Z,48.33
2023-02-03T01:39:45.281Z,50.06
2023-02-03T01:40:45.238Z,49.31
2023-02-03T01:41:45.234Z,46.80
2023-02-03T01:42:45.199Z,49.06
2023-02-03T01:43:45.202Z,45.84
2023-02-03T01:44:45.268Z,47.66
2023-02-03T01:45:45.214Z,46.99
2023-02-03T01:46:45.238Z,47.24
2023-02-03T01:47:45.184Z,48.25
2023-02-03T01:48:45.274Z,45.99
2023-02-03T01:49:45.218Z,45.97
2023-02-03T01:50:45.167Z,51.60
2023-02-03T01:51:45.163Z,46.66
2023-02-03T01:52:45.184Z,46.36
2023-02-03T01:53:45.184Z,46.07
2023-02-03T01:54:45.256Z,48.99
2023-02-03T01:55:45.145Z,47.06
2023-02-03T01:56:45.163Z,46.02
2023-02-03T01:57:45.161Z,46.08
2023-02-03T01:58:45.130Z,46.16
2023-02-03T01:59:45.118Z,45.93
2023-02-03T02:00:45.163Z,46.84
2023-02-03T02:01:45.204Z,45.92
2023-02-03T02:02:45.283Z,45.84
2023-02-03T02:03:45.111Z,45.90
2023-02-03T02:04:45.102Z,46.74
2023-02-03T02:05:45.130Z,45.92
2023-02-03T02:06:45.114Z,45.96
2023-02-03T02:07:45.129Z,45.83
2023-02-03T02:08:45.089Z,47.12
2023-02-03T02:09:45.073Z,48.49
2023-02-03T02:10:45.116Z,46.04
2023-02-03T02:11:45.037Z,45.99
2023-02-03T02:12:45.057Z,46.76
2023-02-03T02:13:45.031Z,46.04
2023-02-03T02:14:45.029Z,45.97
2023-02-03T02:15:45.135Z,47.30
2023-02-03T02:16:45.041Z,46.10
2023-02-03T02:17:45.018Z,47.50
2023-02-03T02:18:45.015Z,46.55
2023-02-03T02:19:45.005Z,45.84
2023-02-03T02:20:45.049Z,46.03
2023-02-03T02:21:45.071Z,48.80
2023-02-03T02:22:44.996Z,49.33
2023-02-03T02:23:44.986Z,46.06
2023-02-03T02:24:44.999Z,46.43
2023-02-03T02:25:44.997Z,45.90
2023-02-03T02:26:45.043Z,45.90
2023-02-03T02:27:45.013Z,45.89
2023-02-03T02:28:44.979Z,45.92
2023-02-03T02:29:44.990Z,45.86
2023-02-03T02:30:45.118Z,45.88
2023-02-03T02:31:45.099Z,47.47
2023-02-03T02:32:44.963Z,46.00
2023-02-03T02:33:44.936Z,45.90
2023-02-03T02:34:44.935Z,45.92
2023-02-03T02:35:44.936Z,49.37
2023-02-03T02:36:44.920Z,50.80
2023-02-03T02:37:44.946Z,49.75
2023-02-03T02:38:44.928Z,47.77
2023-02-03T02:39:44.969Z,51.32
2023-02-03T02:40:44.912Z,46.80
2023-02-03T02:41:44.912Z,51.55
2023-02-03T02:42:45.595Z,49.35
2023-02-03T02:43:44.910Z,49.73
2023-02-03T02:44:45.927Z,46.19
2023-02-03T02:45:44.869Z,46.14
2023-02-03T02:46:44.885Z,46.68
2023-02-03T02:47:44.853Z,48.73
2023-02-03T02:48:44.870Z,48.86
2023-02-03T02:49:44.895Z,45.95
2023-02-03T02:50:44.848Z,45.97
2023-02-03T02:51:44.864Z,47.74
2023-02-03T02:52:45.843Z,47.70
2023-02-03T02:53:44.852Z,46.45
2023-02-03T02:54:44.839Z,46.98
2023-02-03T02:55:44.822Z,49.02
2023-02-03T02:56:44.875Z,49.55
2023-02-03T02:57:44.817Z,47.33
2023-02-03T02:58:44.808Z,48.26
2023-02-03T02:59:44.820Z,48.83
2023-02-03T03:00:44.841Z,48.10
2023-02-03T03:01:44.847Z,46.85
2023-02-03T03:02:44.809Z,46.14
2023-02-03T03:03:44.783Z,46.08
2023-02-03T03:04:44.800Z,45.96
2023-02-03T03:05:44.801Z,45.97
2023-02-03T03:06:44.759Z,50.62
2023-02-03T03:07:44.735Z,47.16
2023-02-03T03:08:44.744Z,48.56
2023-02-03T03:09:44.737Z,46.03
2023-02-03T03:10:44.777Z,47.42
2023-02-03T03:11:44.777Z,47.33
2023-02-03T03:12:44.724Z,46.82
2023-02-03T03:13:44.724Z,48.87
2023-02-03T03:14:44.723Z,46.20
2023-02-03T03:15:44.790Z,51.18
2023-02-03T03:16:44.802Z,51.38
2023-02-03T03:17:44.772Z,50.18
2023-02-03T03:18:44.715Z,46.31
2023-02-03T03:19:44.699Z,51.25
2023-02-03T03:20:44.693Z,46.33
2023-02-03T03:21:44.703Z,46.15
2023-02-03T03:22:44.815Z,46.13
2023-02-03T03:23:44.718Z,49.63
2023-02-03T03:24:44.679Z,55.40
2023-02-03T03:25:45.658Z,51.90
2023-02-03T03:26:44.648Z,46.11
2023-02-03T03:27:44.702Z,46.28
2023-02-03T03:28:44.661Z,46.64
2023-02-03T03:29:44.659Z,56.42
2023-02-03T03:30:44.701Z,52.76
2023-02-03T03:31:44.657Z,48.06
2023-02-03T03:32:44.662Z,47.31
2023-02-03T03:33:44.671Z,51.38
2023-02-03T03:34:44.629Z,50.00
2023-02-03T03:35:44.597Z,49.63
2023-02-03T03:36:44.628Z,46.37
2023-02-03T03:37:44.602Z,51.54
2023-02-03T03:38:44.655Z,47.29
2023-02-03T03:39:44.592Z,46.12
2023-02-03T03:40:44.674Z,47.25
2023-02-03T03:41:44.599Z,47.81
2023-02-03T03:42:44.566Z,50.03
2023-02-03T03:43:44.596Z,46.08
2023-02-03T03:44:44.576Z,46.17
2023-02-03T03:45:44.544Z,49.77
2023-02-03T03:46:44.593Z,52.52
2023-02-03T03:47:44.538Z,49.11
2023-02-03T03:48:44.548Z,48.95
2023-02-03T03:49:44.565Z,53.13
2023-02-03T03:50:44.530Z,50.03
2023-02-03T03:51:44.549Z,50.66
2023-02-03T03:52:44.507Z,47.29
2023-02-03T03:53:44.526Z,48.03
2023-02-03T03:54:44.574Z,46.03
2023-02-03T03:55:44.531Z,46.25
2023-02-03T03:56:44.529Z,45.97
2023-02-03T03:57:44.478Z,46.12
2023-02-03T03:58:44.505Z,49.48
2023-02-03T03:59:44.541Z,50.86
2023-02-03T04:00:44.459Z,53.27
2023-02-03T04:01:44.576Z,49.73
2023-02-03T04:02:44.572Z,49.26
2023-02-03T04:03:44.520Z,51.76
2023-02-03T04:04:44.522Z,51.89
2023-02-03T04:05:44.486Z,53.74
2023-02-03T04:06:44.460Z,49.34
2023-02-03T04:07:44.460Z,49.24
2023-02-03T04:08:44.440Z,49.90
2023-02-03T04:09:44.410Z,53.60
2023-02-03T04:10:44.431Z,50.14
2023-02-03T04:11:44.442Z,47.80
2023-02-03T04:12:44.434Z,49.91
2023-02-03T04:13:44.418Z,50.38
2023-02-03T04:14:44.393Z,48.04
2023-02-03T04:15:45.491Z,46.67
2023-02-03T04:16:44.628Z,51.03
2023-02-03T04:17:44.380Z,49.68
2023-02-03T04:18:44.373Z,53.74
2023-02-03T04:19:44.362Z,50.31
2023-02-03T04:20:44.415Z,50.17
2023-02-03T04:21:44.353Z,53.14
2023-02-03T04:22:44.388Z,53.29
2023-02-03T04:23:44.361Z,52.48
2023-02-03T04:24:44.350Z,52.04
2023-02-03T04:25:44.337Z,50.78
2023-02-03T04:26:44.311Z,50.97
2023-02-03T04:27:44.379Z,49.97
2023-02-03T04:28:44.328Z,49.82
2023-02-03T04:29:44.317Z,51.33
2023-02-03T04:30:44.307Z,48.20
2023-02-03T04:31:44.371Z,50.64
2023-02-03T04:32:44.334Z,48.09
2023-02-03T04:33:44.310Z,52.98
2023-02-03T04:34:44.271Z,50.69
2023-02-03T04:35:44.297Z,48.41
2023-02-03T04:36:44.273Z,52.20
2023-02-03T04:37:44.261Z,51.64
2023-02-03T04:38:44.326Z,48.01
2023-02-03T04:39:44.281Z,48.94
2023-02-03T04:40:44.256Z,50.38
2023-02-03T04:41:44.252Z,48.24
2023-02-03T04:42:44.234Z,51.78
2023-02-03T04:43:44.216Z,51.41
2023-02-03T04:44:44.230Z,50.98
2023-02-03T04:45:44.239Z,50.81
2023-02-03T04:46:44.227Z,49.05
2023-02-03T04:47:44.198Z,50.87
2023-02-03T04:48:44.189Z,50.30
2023-02-03T04:49:44.220Z,51.97
2023-02-03T04:50:44.216Z,50.74
2023-02-03T04:51:44.194Z,52.98
2023-02-03T04:52:44.216Z,51.39
2023-02-03T04:53:44.165Z,49.60
2023-02-03T04:54:44.216Z,51.16
2023-02-03T04:55:44.181Z,51.78
2023-02-03T04:56:44.180Z,52.05
2023-02-03T04:57:44.162Z,51.80
2023-02-03T04:58:44.221Z,51.43
2023-02-03T04:59:44.146Z,51.35
2023-02-03T05:00:44.244Z,49.64
2023-02-03T05:01:44.132Z,49.78
2023-02-03T05:02:44.133Z,51.06
2023-02-03T05:03:44.166Z,50.55
2023-02-03T05:04:44.168Z,51.96
2023-02-03T05:05:44.146Z,51.22
2023-02-03T05:06:44.103Z,52.66
2023-02-03T05:07:44.101Z,53.53
2023-02-03T05:08:44.105Z,50.86
2023-02-03T05:09:44.081Z,53.24
2023-02-03T05:10:44.151Z,50.80
2023-02-03T05:11:44.091Z,53.49
2023-02-03T05:12:44.141Z,47.66
2023-02-03T05:13:44.113Z,49.85
2023-02-03T05:14:44.075Z,48.02
2023-02-03T05:15:44.050Z,49.41
2023-02-03T05:16:44.127Z,52.01
2023-02-03T05:17:44.078Z,52.89
2023-02-03T05:18:44.050Z,55.95
2023-02-03T05:19:44.047Z,54.79
2023-02-03T05:20:44.046Z,51.97
2023-02-03T05:21:44.099Z,51.86
2023-02-03T05:22:44.030Z,52.11
2023-02-03T05:23:44.065Z,53.03
2023-02-03T05:24:44.007Z,53.60
2023-02-03T05:25:44.005Z,54.64
2023-02-03T05:26:44.049Z,50.72
2023-02-03T05:27:44.056Z,53.64
2023-02-03T05:28:44.009Z,52.12
2023-02-03T05:29:45.012Z,54.17
2023-02-03T05:30:44.027Z,54.83
2023-02-03T05:31:44.066Z,51.71
2023-02-03T05:32:43.986Z,50.19
2023-02-03T05:33:44.001Z,53.01
2023-02-03T05:34:43.950Z,53.67
2023-02-03T05:35:44.020Z,51.60
2023-02-03T05:36:43.949Z,54.19
2023-02-03T05:37:43.968Z,50.96
2023-02-03T05:38:43.956Z,53.16
2023-02-03T05:39:43.936Z,54.29
2023-02-03T05:40:43.974Z,52.07
2023-02-03T05:41:43.932Z,54.66
2023-02-03T05:42:43.915Z,51.70
2023-02-03T05:43:43.917Z,55.32
2023-02-03T05:44:43.906Z,55.51
2023-02-03T05:45:43.995Z,54.72
2023-02-03T05:46:43.881Z,53.47
2023-02-03T05:47:43.905Z,53.22
2023-02-03T05:48:43.901Z,50.94
2023-02-03T05:49:43.868Z,52.72
2023-02-03T05:50:43.894Z,53.02
2023-02-03T05:51:43.853Z,53.94
2023-02-03T05:52:43.846Z,52.78
2023-02-03T05:53:43.855Z,54.47
2023-02-03T05:54:43.914Z,52.28
2023-02-03T05:55:43.838Z,52.49
2023-02-03T05:56:43.820Z,53.10
2023-02-03T05:57:43.880Z,52.88
2023-02-03T05:58:43.829Z,54.22
2023-02-03T05:59:43.841Z,54.86
2023-02-03T06:00:43.850Z,52.71
2023-02-03T06:01:43.815Z,56.31
2023-02-03T06:02:43.789Z,56.13
2023-02-03T06:03:46.053Z,56.58
2023-02-03T06:04:44.843Z,54.70
2023-02-03T06:05:43.800Z,52.82
2023-02-03T06:06:43.821Z,52.67
2023-02-03T06:07:43.815Z,55.53
2023-02-03T06:08:43.795Z,52.73
2023-02-03T06:09:43.753Z,53.06
2023-02-03T06:10:43.742Z,52.07
2023-02-03T06:11:43.788Z,53.58
2023-02-03T06:12:43.790Z,55.14
2023-02-03T06:13:43.770Z,55.43
2023-02-03T06:14:43.735Z,53.42
2023-02-03T06:15:43.753Z,55.02
2023-02-03T06:16:43.859Z,53.61
2023-02-03T06:17:43.821Z,55.05
2023-02-03T06:18:43.704Z,55.30
2023-02-03T06:19:43.707Z,54.21
2023-02-03T06:20:43.757Z,54.25
2023-02-03T06:21:44.573Z,54.94
2023-02-03T06:22:43.760Z,53.81
2023-02-03T06:23:43.677Z,52.66
2023-02-03T06:24:43.662Z,52.00
2023-02-03T06:25:43.682Z,53.84
2023-02-03T06:26:43.700Z,53.52
2023-02-03T06:27:43.760Z,55.06
2023-02-03T06:28:43.658Z,54.90
2023-02-03T06:29:43.648Z,53.91
2023-02-03T06:30:43.805Z,53.39
2023-02-03T06:31:43.786Z,56.07
2023-02-03T06:32:43.688Z,54.76
2023-02-03T06:33:43.638Z,53.34
2023-02-03T06:34:43.638Z,54.36
2023-02-03T06:35:43.603Z,55.12
2023-02-03T06:36:43.606Z,56.76
2023-02-03T06:37:43.639Z,52.79
2023-02-03T06:38:43.623Z,53.98
2023-02-03T06:39:43.680Z,54.76
2023-02-03T06:40:43.621Z,54.42
2023-02-03T06:41:43.635Z,54.86
2023-02-03T06:42:43.600Z,53.18
2023-02-03T06:43:43.592Z,53.40
2023-02-03T06:44:43.630Z,55.28
2023-02-03T06:45:43.629Z,56.41
2023-02-03T06:46:43.551Z,54.62
2023-02-03T06:47:43.607Z,56.16
2023-02-03T06:48:43.619Z,53.12
2023-02-03T06:49:43.581Z,54.40
2023-02-03T06:50:43.569Z,54.41
2023-02-03T06:51:43.559Z,54.09
2023-02-03T06:52:43.608Z,56.22
2023-02-03T06:53:43.540Z,54.28
2023-02-03T06:54:43.587Z,54.30
2023-02-03T06:55:43.536Z,55.26
2023-02-03T06:56:43.492Z,55.60
2023-02-03T06:57:43.515Z,55.76
2023-02-03T06:58:43.488Z,56.31
2023-02-03T06:59:43.558Z,52.25
2023-02-03T07:00:43.602Z,50.92
2023-02-03T07:01:43.557Z,53.16
2023-02-03T07:02:43.523Z,54.01
2023-02-03T07:03:43.479Z,54.31
2023-02-03T07:04:43.527Z,54.00
2023-02-03T07:05:43.461Z,55.34
2023-02-03T07:06:43.453Z,52.21
2023-02-03T07:07:43.463Z,54.73
2023-02-03T07:08:43.450Z,56.53
2023-02-03T07:09:43.435Z,55.18
2023-02-03T07:10:43.490Z,55.44
2023-02-03T07:11:43.426Z,54.93
2023-02-03T07:12:44.437Z,53.66
2023-02-03T07:13:43.422Z,54.30
2023-02-03T07:14:43.432Z,54.69
2023-02-03T07:15:43.489Z,51.27
2023-02-03T07:16:43.411Z,54.41
2023-02-03T07:17:43.398Z,51.58
2023-02-03T07:18:47.371Z,52.92
2023-02-03T07:19:46.052Z,53.73
2023-02-03T07:20:44.504Z,54.51
2023-02-03T07:21:43.371Z,54.30
2023-02-03T07:22:43.427Z,55.37
2023-02-03T07:23:43.358Z,54.12
2023-02-03T07:24:43.365Z,52.72
2023-02-03T07:25:43.404Z,52.80
2023-02-03T07:26:43.367Z,52.69
2023-02-03T07:27:44.432Z,53.36
2023-02-03T07:28:43.347Z,56.45
2023-02-03T07:29:43.344Z,55.03
2023-02-03T07:30:43.491Z,54.50
2023-02-03T07:31:43.458Z,54.00
2023-02-03T07:32:43.429Z,54.01
2023-02-03T07:33:43.361Z,52.64
2023-02-03T07:34:43.352Z,51.74
2023-02-03T07:35:43.342Z,53.13
2023-02-03T07:36:43.358Z,54.48
2023-02-03T07:37:43.298Z,52.90
2023-02-03T07:38:43.327Z,54.25
2023-02-03T07:39:43.364Z,52.65
2023-02-03T07:40:43.338Z,53.80
2023-02-03T07:41:43.317Z,53.04
2023-02-03T07:42:43.266Z,54.25
2023-02-03T07:43:43.303Z,51.50
2023-02-03T07:44:43.363Z,53.28
2023-02-03T07:45:43.333Z,54.86
2023-02-03T07:46:43.341Z,55.12
2023-02-03T07:47:44.282Z,53.48
2023-02-03T07:48:43.327Z,55.11
2023-02-03T07:49:43.288Z,54.21
2023-02-03T07:50:43.325Z,51.28
2023-02-03T07:51:43.264Z,52.04
2023-02-03T07:52:43.228Z,52.12
2023-02-03T07:53:43.272Z,50.88
2023-02-03T07:54:43.279Z,53.73
2023-02-03T07:55:43.224Z,51.02
2023-02-03T07:56:43.220Z,53.17
2023-02-03T07:57:43.407Z,53.70
2023-02-03T07:58:43.193Z,55.62
2023-02-03T07:59:43.209Z,53.80
2023-02-03T08:00:43.192Z,51.79
2023-02-03T08:01:43.326Z,52.56
2023-02-03T08:02:43.227Z,51.35
2023-02-03T08:03:43.195Z,54.41
2023-02-03T08:04:43.271Z,53.27
2023-02-03T08:05:43.445Z,52.52
2023-02-03T08:06:43.249Z,51.69
2023-02-03T08:07:43.192Z,50.27
2023-02-03T08:08:43.287Z,53.94
2023-02-03T08:09:43.239Z,54.27
2023-02-03T08:10:43.231Z,54.74
2023-02-03T08:11:43.179Z,54.97
2023-02-03T08:12:45.092Z,52.12
2023-02-03T08:13:44.307Z,54.44
2023-02-03T08:14:43.133Z,53.37
2023-02-03T08:15:43.147Z,53.53
2023-02-03T08:16:43.145Z,55.17
2023-02-03T08:17:43.228Z,53.08
2023-02-03T08:18:43.240Z,54.23
2023-02-03T08:19:43.131Z,55.10
2023-02-03T08:20:43.131Z,51.58
2023-02-03T08:21:43.150Z,53.50
2023-02-03T08:22:43.075Z,53.23
2023-02-03T08:23:43.152Z,56.05
2023-02-03T08:24:43.062Z,55.38
2023-02-03T08:25:43.183Z,53.62
2023-02-03T08:26:43.066Z,53.41
2023-02-03T08:27:43.101Z,54.48
2023-02-03T08:28:43.024Z,54.92
2023-02-03T08:29:43.051Z,56.73
2023-02-03T08:30:43.040Z,58.06
2023-02-03T08:31:43.229Z,55.95
2023-02-03T08:32:43.023Z,59.62
2023-02-03T08:33:42.988Z,54.47
2023-02-03T08:34:43.001Z,53.36
2023-02-03T08:35:43.044Z,56.07
2023-02-03T08:36:43.036Z,59.65
2023-02-03T08:37:43.125Z,52.74
2023-02-03T08:38:42.987Z,53.78
2023-02-03T08:39:42.993Z,52.63
2023-02-03T08:40:43.030Z,52.95
2023-02-03T08:41:42.975Z,54.98
2023-02-03T08:42:43.067Z,54.44
2023-02-03T08:43:42.988Z,53.96
2023-02-03T08:44:43.052Z,54.47
2023-02-03T08:45:43.059Z,54.60
2023-02-03T08:46:42.933Z,55.23
2023-02-03T08:47:42.981Z,56.37
2023-02-03T08:48:42.957Z,56.08
2023-02-03T08:49:42.939Z,55.86
2023-02-03T08:50:42.929Z,55.22
2023-02-03T08:51:42.933Z,54.23
2023-02-03T08:52:43.005Z,53.87
2023-02-03T08:53:42.952Z,52.96
2023-02-03T08:54:42.919Z,53.32
2023-02-03T08:55:42.904Z,55.85
2023-02-03T08:56:42.915Z,53.56
2023-02-03T08:57:42.900Z,53.15
2023-02-03T08:58:42.902Z,54.56
2023-02-03T08:59:42.868Z,55.38
2023-02-03T09:00:42.964Z,55.39
2023-02-03T09:01:42.881Z,55.76
2023-02-03T09:02:42.860Z,54.73
2023-02-03T09:03:42.926Z,54.44
2023-02-03T09:04:42.894Z,54.43
2023-02-03T09:05:42.917Z,53.17
2023-02-03T09:06:42.830Z,52.68
2023-02-03T09:07:42.858Z,54.34
2023-02-03T09:08:42.879Z,53.51
2023-02-03T09:09:42.814Z,53.30
2023-02-03T09:10:42.875Z,53.91
2023-02-03T09:11:42.803Z,55.30
2023-02-03T09:12:42.852Z,55.13
2023-02-03T09:13:42.810Z,54.48
2023-02-03T09:14:42.803Z,54.30
2023-02-03T09:15:42.851Z,53.16
2023-02-03T09:16:42.811Z,55.16
2023-02-03T09:17:42.821Z,54.72
2023-02-03T09:18:42.784Z,53.56
2023-02-03T09:19:42.927Z,54.12
2023-02-03T09:20:42.892Z,53.56
2023-02-03T09:21:48.281Z,54.26
2023-02-03T09:22:43.766Z,53.69
2023-02-03T09:23:42.761Z,52.74
2023-02-03T09:24:42.787Z,50.98
2023-02-03T09:25:46.258Z,52.91
2023-02-03T09:26:43.801Z,51.93
2023-02-03T09:27:42.750Z,54.53
2023-02-03T09:28:42.756Z,55.27
2023-02-03T09:29:42.733Z,54.79
2023-02-03T09:30:42.767Z,55.41
2023-02-03T09:31:42.864Z,54.04
2023-02-03T09:32:42.723Z,52.07
2023-02-03T09:33:42.716Z,54.58
2023-02-03T09:34:42.694Z,53.00
2023-02-03T09:35:42.726Z,56.22
2023-02-03T09:36:43.179Z,56.94
2023-02-03T09:37:43.788Z,55.66
2023-02-03T09:38:42.686Z,54.00
2023-02-03T09:39:42.681Z,56.16
2023-02-03T09:40:42.709Z,56.02
2023-02-03T09:41:42.721Z,54.41
2023-02-03T09:42:42.678Z,52.80
2023-02-03T09:43:42.712Z,56.36
2023-02-03T09:44:42.655Z,54.62
2023-02-03T09:45:42.746Z,57.13
2023-02-03T09:46:42.669Z,54.29
2023-02-03T09:47:42.647Z,54.72
2023-02-03T09:48:42.776Z,55.38
2023-02-03T09:49:42.668Z,55.36
2023-02-03T09:50:42.687Z,54.99
2023-02-03T09:51:42.632Z,52.58
2023-02-03T09:52:42.617Z,55.27
2023-02-03T09:53:42.698Z,51.91
2023-02-03T09:54:42.643Z,53.96
2023-02-03T09:55:42.613Z,54.00
2023-02-03T09:56:42.623Z,54.95
2023-02-03T09:57:42.596Z,52.23
2023-02-03T09:58:42.635Z,53.18
2023-02-03T09:59:42.587Z,51.53
2023-02-03T10:00:42.642Z,54.75
2023-02-03T10:01:42.776Z,54.96
2023-02-03T10:02:42.647Z,57.16
2023-02-03T10:03:42.578Z,57.26
2023-02-03T10:04:42.623Z,55.45
2023-02-03T10:05:42.591Z,54.25
2023-02-03T10:06:42.556Z,53.80
2023-02-03T10:07:42.580Z,52.73
2023-02-03T10:08:42.549Z,54.69
2023-02-03T10:09:42.605Z,54.64
2023-02-03T10:10:42.524Z,53.48
2023-02-03T10:11:42.558Z,56.52
2023-02-03T10:12:42.542Z,53.22
2023-02-03T10:13:42.543Z,56.91
2023-02-03T10:14:42.576Z,56.11
2023-02-03T10:15:42.532Z,57.95
2023-02-03T10:16:42.619Z,55.44
2023-02-03T10:17:42.512Z,56.09
2023-02-03T10:18:42.491Z,54.75
2023-02-03T10:19:42.547Z,54.75
2023-02-03T10:20:42.544Z,53.31
2023-02-03T10:21:42.485Z,55.91
2023-02-03T10:22:42.466Z,54.88
2023-02-03T10:23:42.496Z,54.99
2023-02-03T10:24:42.476Z,55.88
2023-02-03T10:25:42.555Z,54.46
2023-02-03T10:26:42.474Z,52.78
2023-02-03T10:27:42.622Z,53.85
2023-02-03T10:28:42.439Z,50.44
2023-02-03T10:29:42.464Z,51.66
2023-02-03T10:30:42.587Z,53.25
2023-02-03T10:31:42.516Z,52.40
2023-02-03T10:32:42.442Z,53.90
2023-02-03T10:33:42.433Z,53.03
2023-02-03T10:34:42.460Z,53.71
2023-02-03T10:35:42.653Z,55.75
2023-02-03T10:36:42.392Z,53.48
2023-02-03T10:37:42.415Z,54.26
2023-02-03T10:38:42.414Z,55.31
2023-02-03T10:39:42.453Z,52.64
2023-02-03T10:40:42.407Z,52.68
2023-02-03T10:41:42.402Z,55.28
2023-02-03T10:42:42.367Z,54.31
2023-02-03T10:43:42.373Z,53.42
2023-02-03T10:44:42.404Z,53.64
2023-02-03T10:45:42.491Z,54.55
2023-02-03T10:46:42.409Z,55.30
2023-02-03T10:47:42.339Z,54.34
2023-02-03T10:48:42.373Z,53.66
2023-02-03T10:49:43.408Z,54.22
2023-02-03T10:50:43.368Z,53.54
2023-02-03T10:51:42.357Z,56.08
2023-02-03T10:52:42.344Z,55.10
2023-02-03T10:53:42.319Z,54.10
2023-02-03T10:54:42.357Z,53.65
2023-02-03T10:55:42.328Z,54.56
2023-02-03T10:56:42.308Z,53.23
2023-02-03T10:57:42.325Z,54.86
2023-02-03T10:58:42.291Z,54.75
2023-02-03T10:59:42.355Z,54.22
2023-02-03T11:00:42.303Z,53.38
2023-02-03T11:01:42.388Z,53.55
2023-02-03T11:02:42.405Z,54.02
2023-02-03T11:03:42.267Z,54.17
2023-02-03T11:04:42.260Z,55.76
2023-02-03T11:05:43.483Z,52.14
2023-02-03T11:06:43.328Z,53.82
2023-02-03T11:07:42.302Z,54.24
2023-02-03T11:08:42.299Z,54.32
2023-02-03T11:09:42.263Z,52.06
2023-02-03T11:10:42.280Z,52.54
2023-02-03T11:11:42.241Z,55.27
2023-02-03T11:12:42.224Z,53.03
2023-02-03T11:13:42.248Z,55.55
2023-02-03T11:14:42.239Z,55.01
2023-02-03T11:15:42.289Z,53.36
2023-02-03T11:16:44.422Z,54.14
2023-02-03T11:17:43.254Z,53.50
2023-02-03T11:18:42.218Z,55.59
2023-02-03T11:19:42.216Z,54.06
2023-02-03T11:20:42.189Z,53.59
2023-02-03T11:21:42.202Z,54.33
2023-02-03T11:22:42.246Z,55.16
2023-02-03T11:23:42.220Z,53.45
2023-02-03T11:24:42.190Z,53.31
2023-02-03T11:25:42.202Z,55.50
2023-02-03T11:26:42.167Z,58.37
2023-02-03T11:27:42.233Z,60.51
2023-02-03T11:28:42.284Z,55.05
2023-02-03T11:29:42.203Z,54.89
2023-02-03T11:30:42.199Z,55.72
2023-02-03T11:31:42.269Z,53.91
2023-02-03T11:32:42.142Z,56.65
2023-02-03T11:33:42.138Z,53.17
2023-02-03T11:34:42.170Z,52.22
2023-02-03T11:35:42.184Z,53.51
2023-02-03T11:36:42.119Z,56.19
2023-02-03T11:37:42.138Z,55.20
2023-02-03T11:38:42.099Z,55.01
2023-02-03T11:39:42.154Z,54.43
2023-02-03T11:40:42.089Z,54.33
2023-02-03T11:41:42.075Z,53.43
2023-02-03T11:42:42.149Z,56.21
2023-02-03T11:43:42.110Z,53.59
2023-02-03T11:44:42.118Z,52.52
2023-02-03T11:45:42.134Z,53.27
2023-02-03T11:46:42.123Z,53.00
2023-02-03T11:47:42.086Z,51.51
2023-02-03T11:48:42.084Z,54.49
2023-02-03T11:49:42.055Z,52.04
2023-02-03T11:50:42.080Z,52.76
2023-02-03T11:51:42.085Z,52.40
2023-02-03T11:52:42.051Z,54.19
2023-02-03T11:53:55.139Z,53.88
2023-02-03T11:54:44.055Z,54.43
2023-02-03T11:55:42.024Z,54.60
2023-02-03T11:56:42.098Z,53.26
2023-02-03T11:57:42.042Z,52.93
2023-02-03T11:58:42.037Z,52.80
2023-02-03T11:59:42.005Z,51.00
2023-02-03T12:00:42.022Z,53.75
2023-02-03T12:01:42.002Z,52.44
2023-02-03T12:02:42.087Z,54.34
2023-02-03T12:03:42.043Z,51.45
2023-02-03T12:04:42.053Z,53.10
2023-02-03T12:05:41.975Z,53.26
2023-02-03T12:06:41.979Z,53.28
2023-02-03T12:07:42.004Z,55.25
2023-02-03T12:08:41.982Z,54.71
2023-02-03T12:09:41.989Z,53.15
2023-02-03T12:10:41.962Z,53.68
2023-02-03T12:11:41.972Z,53.90
2023-02-03T12:12:42.081Z,53.19
2023-02-03T12:13:41.996Z,52.84
2023-02-03T12:14:41.946Z,51.84
2023-02-03T12:15:41.974Z,52.99
2023-02-03T12:16:41.927Z,52.38
2023-02-03T12:17:41.953Z,54.33
2023-02-03T12:18:41.970Z,55.35
2023-02-03T12:19:41.939Z,54.06
2023-02-03T12:20:41.922Z,54.22
2023-02-03T12:21:41.939Z,53.30
2023-02-03T12:22:41.914Z,55.06
2023-02-03T12:23:41.987Z,53.12
2023-02-03T12:24:41.929Z,52.99
2023-02-03T12:25:42.903Z,50.88
2023-02-03T12:26:41.893Z,52.05
2023-02-03T12:27:44.673Z,51.36
2023-02-03T12:28:41.905Z,54.57
2023-02-03T12:29:41.901Z,55.06
2023-02-03T12:30:41.907Z,54.83
2023-02-03T12:31:41.871Z,58.06
2023-02-03T12:32:41.861Z,54.93
2023-02-03T12:33:41.896Z,54.07
2023-02-03T12:34:41.838Z,54.63
2023-02-03T12:35:41.878Z,56.08
2023-02-03T12:36:41.852Z,52.95
2023-02-03T12:37:41.887Z,56.27
2023-02-03T12:38:41.820Z,56.83
2023-02-03T12:39:41.825Z,53.78
2023-02-03T12:40:41.862Z,55.35
2023-02-03T12:41:41.812Z,53.86
2023-02-03T12:42:41.829Z,54.26
2023-02-03T12:43:41.805Z,57.46
2023-02-03T12:44:41.841Z,56.81
2023-02-03T12:45:41.893Z,56.57
2023-02-03T12:46:41.827Z,52.10
2023-02-03T12:47:41.848Z,52.56
2023-02-03T12:48:41.773Z,53.16
2023-02-03T12:49:41.806Z,51.32
2023-02-03T12:50:41.786Z,51.23
2023-02-03T12:51:41.830Z,52.82
2023-02-03T12:52:41.763Z,55.52